createdAt,value
2019-02-17T00:02:37.054Z,39.33
2019-02-17T00:05:42.234Z,39.87
2019-02-17T00:08:47.432Z,37.10
2019-02-17T00:11:52.608Z,35.50
2019-02-17T00:14:57.808Z,37.77
2019-02-17T00:18:02.935Z,35.30
2019-02-17T00:21:08.130Z,29.87
2019-02-17T00:24:13.343Z,28.30
2019-02-17T00:27:18.496Z,31.83
2019-02-17T00:30:23.671Z,33.53
2019-02-17T00:33:28.830Z,32.83
2019-02-17T00:36:34.021Z,27.40
2019-02-17T00:39:39.201Z,26.20
2019-02-17T00:42:44.590Z,31.97
2019-02-17T00:45:50.819Z,28.00
2019-02-17T00:48:56.032Z,27.97
2019-02-17T00:52:01.146Z,30.10
2019-02-17T00:55:06.464Z,27.87
2019-02-17T00:58:11.691Z,24.90
2019-02-17T01:01:16.869Z,27.60
2019-02-17T01:04:22.006Z,33.40
2019-02-17T01:07:27.106Z,29.80
2019-02-17T01:10:32.248Z,29.23
2019-02-17T01:13:37.414Z,28.37
2019-02-17T01:16:42.581Z,28.43
2019-02-17T01:19:47.783Z,34.93
2019-02-17T01:22:52.900Z,28.47
2019-02-17T01:25:58.094Z,28.37
2019-02-17T01:29:03.211Z,32.73
2019-02-17T01:32:08.462Z,34.23
2019-02-17T01:35:13.945Z,33.27
2019-02-17T01:38:19.182Z,29.13
2019-02-17T01:41:24.403Z,25.33
2019-02-17T01:44:29.528Z,28.23
2019-02-17T01:47:34.662Z,26.90
2019-02-17T01:50:39.809Z,25.77
2019-02-17T01:53:45.002Z,19.93
2019-02-17T01:56:50.168Z,22.10
2019-02-17T01:59:55.407Z,17.87
2019-02-17T02:03:00.640Z,21.63
2019-02-17T02:06:05.804Z,22.73
2019-02-17T02:09:11.331Z,23.93
2019-02-17T02:12:16.491Z,24.93
2019-02-17T02:15:21.619Z,24.90
2019-02-17T02:18:26.885Z,22.37
2019-02-17T02:21:31.982Z,18.93
2019-02-17T02:24:37.103Z,23.43
2019-02-17T02:27:42.245Z,22.57
2019-02-17T02:30:47.422Z,19.93
2019-02-17T02:33:52.630Z,20.33
2019-02-17T02:36:57.785Z,19.00
2019-02-17T02:40:02.973Z,21.20
2019-02-17T02:43:08.083Z,20.63
2019-02-17T02:46:13.187Z,22.67
2019-02-17T02:49:18.427Z,25.00
2019-02-17T02:52:23.604Z,24.07
2019-02-17T02:55:28.864Z,22.57
2019-02-17T02:58:34.024Z,26.97
2019-02-17T03:01:39.198Z,25.00
2019-02-17T03:04:44.373Z,24.20
2019-02-17T03:07:49.562Z,20.67
2019-02-17T03:10:54.650Z,24.07
2019-02-17T03:13:59.730Z,24.83
2019-02-17T03:17:04.847Z,23.87
2019-02-17T03:20:10.395Z,23.20
2019-02-17T03:23:15.556Z,18.67
2019-02-17T03:26:20.692Z,20.30
2019-02-17T03:29:25.874Z,21.30
2019-02-17T03:32:31.082Z,22.37
2019-02-17T03:35:36.325Z,25.73
2019-02-17T03:38:41.541Z,23.07
2019-02-17T03:41:46.655Z,47.63
2019-02-17T03:44:51.829Z,99.77
2019-02-17T03:47:57.011Z,46.60
2019-02-17T03:51:02.160Z,57.07
2019-02-17T03:54:07.308Z,69.03
2019-02-17T03:57:12.581Z,61.83
2019-02-17T04:00:17.775Z,71.30
2019-02-17T04:03:22.932Z,70.00
2019-02-17T04:06:28.112Z,71.07
2019-02-17T04:09:33.269Z,58.20
2019-02-17T04:12:38.418Z,57.40
2019-02-17T04:15:43.573Z,99.07
2019-02-17T04:18:48.721Z,108.50
2019-02-17T04:21:53.940Z,52.90
2019-02-17T04:24:59.084Z,97.10
2019-02-17T04:28:04.242Z,110.00
2019-02-17T04:31:09.391Z,82.57
2019-02-17T04:34:14.627Z,50.83
2019-02-17T04:37:19.793Z,38.13
2019-02-17T04:40:24.938Z,33.33
2019-02-17T04:43:30.062Z,34.20
2019-02-17T04:46:35.193Z,27.73
2019-02-17T04:49:40.354Z,28.23
2019-02-17T04:52:45.488Z,50.73
2019-02-17T04:55:50.655Z,58.13
2019-02-17T04:58:55.851Z,29.57
2019-02-17T05:02:01.014Z,53.40
2019-02-17T05:05:06.358Z,44.07
2019-02-17T05:08:11.487Z,38.17
2019-02-17T05:11:16.630Z,28.20
2019-02-17T05:14:21.747Z,46.60
2019-02-17T05:17:26.904Z,47.27
2019-02-17T05:20:32.080Z,69.20
2019-02-17T05:23:37.208Z,35.17
2019-02-17T05:26:42.385Z,30.33
2019-02-17T05:29:47.521Z,41.30
2019-02-17T05:32:54.276Z,38.53
2019-02-17T05:36:01.767Z,37.37
2019-02-17T05:39:07.230Z,46.40
2019-02-17T05:42:12.345Z,73.30
2019-02-17T05:45:17.500Z,48.90
2019-02-17T05:48:22.682Z,37.23
2019-02-17T05:51:27.986Z,32.93
2019-02-17T05:54:33.173Z,30.70
2019-02-17T05:57:38.353Z,33.17
2019-02-17T06:00:43.500Z,38.63
2019-02-17T06:03:48.628Z,36.50
2019-02-17T06:06:53.768Z,28.60
2019-02-17T06:09:58.887Z,41.13
2019-02-17T06:13:04.127Z,43.47
2019-02-17T06:16:09.283Z,41.33
2019-02-17T06:19:14.495Z,35.70
2019-02-17T06:22:19.641Z,36.03
2019-02-17T06:25:24.933Z,55.87
2019-02-17T06:28:31.318Z,102.17
2019-02-17T06:31:36.524Z,58.23
2019-02-17T06:34:41.666Z,75.13
2019-02-17T06:37:46.915Z,94.33
2019-02-17T06:40:52.457Z,99.57
2019-02-17T06:43:57.682Z,99.17
2019-02-17T06:47:05.644Z,45.10
2019-02-17T06:50:11.248Z,83.47
2019-02-17T06:53:16.422Z,129.03
2019-02-17T06:56:27.682Z,97.40
2019-02-17T06:59:32.775Z,99.40
2019-02-17T07:02:37.936Z,96.33
2019-02-17T07:05:54.243Z,89.07
2019-02-17T07:08:59.440Z,89.97
2019-02-17T07:12:04.636Z,76.50
2019-02-17T07:15:09.812Z,121.70
2019-02-17T07:18:16.110Z,129.80
2019-02-17T07:21:21.246Z,95.10
2019-02-17T07:24:26.393Z,126.37
2019-02-17T07:27:32.830Z,91.73
2019-02-17T07:30:37.961Z,158.67
2019-02-17T07:33:43.157Z,137.93
2019-02-17T07:36:48.386Z,76.73
2019-02-17T07:39:53.613Z,125.27
2019-02-17T07:42:58.740Z,101.40
2019-02-17T07:46:03.945Z,131.30
2019-02-17T07:49:09.068Z,114.20
2019-02-17T07:52:14.423Z,87.63
2019-02-17T07:55:19.663Z,77.50
2019-02-17T07:58:24.906Z,79.20
2019-02-17T08:01:30.016Z,34.90
2019-02-17T08:04:35.388Z,82.07
2019-02-17T08:07:40.567Z,115.00
2019-02-17T08:10:45.798Z,91.87
2019-02-17T08:13:51.060Z,119.57
2019-02-17T08:16:56.216Z,124.23
2019-02-17T08:20:01.570Z,141.43
2019-02-17T08:23:06.715Z,79.37
2019-02-17T08:26:11.856Z,59.70
2019-02-17T08:29:16.992Z,74.80
2019-02-17T08:32:23.223Z,59.53
2019-02-17T08:35:28.446Z,132.57
2019-02-17T08:38:33.632Z,98.17
2019-02-17T08:41:40.253Z,56.90
2019-02-17T08:44:45.716Z,36.57
2019-02-17T08:47:50.916Z,38.77
2019-02-17T08:50:56.129Z,28.80
2019-02-17T08:54:01.316Z,30.37
2019-02-17T08:57:06.478Z,27.30
2019-02-17T09:00:12.687Z,31.37
2019-02-17T09:03:17.852Z,30.30
2019-02-17T09:06:23.134Z,33.17
2019-02-17T09:09:28.270Z,47.17
2019-02-17T09:12:33.441Z,125.13
2019-02-17T09:15:38.651Z,99.73
2019-02-17T09:18:43.876Z,31.47
2019-02-17T09:21:49.026Z,29.33
2019-02-17T09:24:54.264Z,26.90
2019-02-17T09:27:59.384Z,28.27
2019-02-17T09:31:04.599Z,31.10
2019-02-17T09:34:09.792Z,27.30
2019-02-17T09:37:15.008Z,32.00
2019-02-17T09:40:20.161Z,26.33
2019-02-17T09:43:25.390Z,24.57
2019-02-17T09:46:30.563Z,31.70
2019-02-17T09:49:35.724Z,45.37
2019-02-17T09:52:41.013Z,70.93
2019-02-17T09:55:46.289Z,28.50
2019-02-17T09:58:53.338Z,35.40
2019-02-17T10:01:58.454Z,26.43
2019-02-17T10:05:03.619Z,23.13
2019-02-17T10:08:08.827Z,26.63
2019-02-17T10:11:13.974Z,24.03
2019-02-17T10:14:19.239Z,26.07
2019-02-17T10:17:24.397Z,27.30
2019-02-17T10:20:29.557Z,23.83
2019-02-17T10:23:34.703Z,28.80
2019-02-17T10:26:39.915Z,26.33
2019-02-17T10:29:45.166Z,24.03
2019-02-17T10:32:50.366Z,26.53
2019-02-17T10:35:55.535Z,24.10
2019-02-17T10:39:00.677Z,24.37
2019-02-17T10:42:07.427Z,26.13
2019-02-17T10:45:12.832Z,23.97
2019-02-17T10:48:18.087Z,28.07
2019-02-17T10:51:23.320Z,24.63
2019-02-17T10:54:28.553Z,25.27
2019-02-17T10:57:33.736Z,26.77
2019-02-17T11:00:38.889Z,27.57
2019-02-17T11:04:00.446Z,23.93
2019-02-17T11:07:05.588Z,27.70
2019-02-17T11:10:10.851Z,26.03
2019-02-17T11:13:16.035Z,26.77
2019-02-17T11:16:21.259Z,26.20
2019-02-17T11:19:26.462Z,29.90
2019-02-17T11:22:31.646Z,26.73
2019-02-17T11:25:36.802Z,25.83
2019-02-17T11:28:41.985Z,26.00
2019-02-17T11:31:47.178Z,24.50
2019-02-17T11:34:52.441Z,28.27
2019-02-17T11:37:58.588Z,27.00
2019-02-17T11:41:03.736Z,25.23
2019-02-17T11:44:08.898Z,26.53
2019-02-17T11:47:14.064Z,27.67
2019-02-17T11:50:19.176Z,26.30
2019-02-17T11:53:24.391Z,25.87
2019-02-17T11:56:29.693Z,27.63
2019-02-17T11:59:34.893Z,28.67
2019-02-17T12:02:40.087Z,28.00
2019-02-17T12:05:45.252Z,28.43
2019-02-17T12:08:50.531Z,26.03
2019-02-17T12:11:55.714Z,25.57
2019-02-17T12:15:01.028Z,25.53
2019-02-17T12:18:06.290Z,27.97
2019-02-17T12:21:31.957Z,26.87
2019-02-17T12:24:56.087Z,27.40
2019-02-17T12:28:08.128Z,29.07
2019-02-17T12:31:19.084Z,28.53
2019-02-17T12:34:24.506Z,26.93
2019-02-17T12:37:30.218Z,27.60
2019-02-17T12:40:35.534Z,26.83
2019-02-17T12:43:40.764Z,27.77
2019-02-17T12:46:46.243Z,29.50
2019-02-17T12:49:51.620Z,24.73
2019-02-17T12:52:56.947Z,28.10
2019-02-17T12:56:02.334Z,29.07
2019-02-17T12:59:07.631Z,28.27
2019-02-17T13:02:12.874Z,27.30
2019-02-17T13:05:18.074Z,25.40
2019-02-17T13:08:23.413Z,26.10
2019-02-17T13:11:28.683Z,24.37
2019-02-17T13:14:33.864Z,28.20
2019-02-17T13:17:39.071Z,26.77
2019-02-17T13:20:44.214Z,27.30
2019-02-17T13:23:49.396Z,25.90
2019-02-17T13:26:54.572Z,25.83
2019-02-17T13:29:59.777Z,23.57
2019-02-17T13:33:05.297Z,28.97
2019-02-17T13:36:10.561Z,27.23
2019-02-17T13:39:15.829Z,25.83
2019-02-17T13:42:21.031Z,24.87
2019-02-17T13:45:26.241Z,42.30
2019-02-17T13:48:32.864Z,27.57
2019-02-17T13:51:38.018Z,105.63
2019-02-17T13:54:43.298Z,48.70
2019-02-17T13:57:48.465Z,27.10
2019-02-17T14:00:53.702Z,25.50
2019-02-17T14:03:58.849Z,32.70
2019-02-17T14:07:04.034Z,25.83
2019-02-17T14:10:10.228Z,27.47
2019-02-17T14:13:15.377Z,27.87
2019-02-17T14:16:20.547Z,25.70
2019-02-17T14:19:25.687Z,26.20
2019-02-17T14:22:30.883Z,28.77
2019-02-17T14:25:36.063Z,25.43
2019-02-17T14:28:41.250Z,24.03
2019-02-17T14:31:46.437Z,27.00
2019-02-17T14:34:51.557Z,23.70
2019-02-17T14:37:56.733Z,26.93
2019-02-17T14:41:01.893Z,25.87
2019-02-17T14:44:07.106Z,27.17
2019-02-17T14:47:12.349Z,23.80
2019-02-17T14:50:17.583Z,27.93
2019-02-17T14:53:22.719Z,23.87
2019-02-17T14:56:29.413Z,25.90
2019-02-17T14:59:34.648Z,22.07
2019-02-17T15:02:39.838Z,24.03
2019-02-17T15:05:44.997Z,24.13
2019-02-17T15:08:51.202Z,22.43
2019-02-17T15:11:56.346Z,22.90
2019-02-17T15:15:01.529Z,24.40
2019-02-17T15:18:08.174Z,22.07
2019-02-17T15:21:13.305Z,25.40
2019-02-17T15:24:18.419Z,25.53
2019-02-17T15:27:23.623Z,26.13
2019-02-17T15:30:28.782Z,26.77
2019-02-17T15:33:34.026Z,24.60
2019-02-17T15:36:39.175Z,23.07
2019-02-17T15:39:44.367Z,24.47
2019-02-17T15:42:49.494Z,23.57
2019-02-17T15:45:54.726Z,22.27
2019-02-17T15:48:59.880Z,26.47
2019-02-17T15:52:05.159Z,21.67
2019-02-17T15:55:10.413Z,28.13
2019-02-17T15:58:15.595Z,24.63
2019-02-17T16:01:20.779Z,25.77
2019-02-17T16:04:28.472Z,26.97
2019-02-17T16:07:32.796Z,26.90
2019-02-17T16:10:37.980Z,23.80
2019-02-17T16:13:43.116Z,24.00
2019-02-17T16:16:48.339Z,22.33
2019-02-17T16:19:53.525Z,22.93
2019-02-17T16:22:58.818Z,32.27
2019-02-17T16:26:03.960Z,39.27
2019-02-17T16:29:09.223Z,34.73
2019-02-17T16:32:14.355Z,30.43
2019-02-17T16:35:19.498Z,34.00
2019-02-17T16:38:24.924Z,28.90
2019-02-17T16:41:30.105Z,41.20
2019-02-17T16:44:36.253Z,49.70
2019-02-17T16:47:41.615Z,39.93
2019-02-17T16:50:46.782Z,40.37
2019-02-17T16:53:52.041Z,31.07
2019-02-17T16:56:57.216Z,31.53
2019-02-17T17:00:02.403Z,33.43
2019-02-17T17:03:07.838Z,28.10
2019-02-17T17:06:14.818Z,30.27
2019-02-17T17:09:20.006Z,33.07
2019-02-17T17:12:25.245Z,33.27
2019-02-17T17:15:30.444Z,35.43
2019-02-17T17:18:35.654Z,31.57
2019-02-17T17:21:40.827Z,27.20
2019-02-17T17:24:46.045Z,27.77
2019-02-17T17:27:58.016Z,31.50
2019-02-17T17:31:03.147Z,30.47
2019-02-17T17:34:08.488Z,28.97
2019-02-17T17:37:13.664Z,30.27
2019-02-17T17:40:18.829Z,33.40
2019-02-17T17:43:24.198Z,42.57
2019-02-17T17:46:29.440Z,42.33
2019-02-17T17:49:34.651Z,40.03
2019-02-17T17:52:39.812Z,39.87
2019-02-17T17:55:44.952Z,29.73
2019-02-17T17:58:50.186Z,34.10
2019-02-17T18:01:55.391Z,34.63
2019-02-17T18:05:08.842Z,34.67
2019-02-17T18:08:09.266Z,32.30
2019-02-17T18:11:14.534Z,34.20
2019-02-17T18:14:19.812Z,31.67
2019-02-17T18:17:24.959Z,30.20
2019-02-17T18:20:30.177Z,30.70
2019-02-17T18:23:35.487Z,27.33
2019-02-17T18:26:40.649Z,32.27
2019-02-17T18:29:45.907Z,32.50
2019-02-17T18:32:51.239Z,28.37
2019-02-17T18:35:56.477Z,31.33
2019-02-17T18:39:01.739Z,29.17
2019-02-17T18:42:08.762Z,29.47
2019-02-17T18:45:13.930Z,42.20
2019-02-17T18:48:19.176Z,32.33
2019-02-17T18:51:24.493Z,30.60
2019-02-17T18:54:30.806Z,34.60
2019-02-17T18:57:36.008Z,32.53
2019-02-17T19:00:41.301Z,34.73
2019-02-17T19:03:46.591Z,32.70
2019-02-17T19:06:51.807Z,33.50
2019-02-17T19:09:57.075Z,35.60
2019-02-17T19:13:02.295Z,35.53
2019-02-17T19:16:07.696Z,39.70
2019-02-17T19:19:13.109Z,45.20
2019-02-17T19:22:18.308Z,48.73
2019-02-17T19:25:23.515Z,56.30
2019-02-17T19:28:28.853Z,51.40
2019-02-17T19:31:36.771Z,50.17
2019-02-17T19:34:41.859Z,50.60
2019-02-17T19:37:47.002Z,50.27
2019-02-17T19:40:52.138Z,49.20
2019-02-17T19:43:57.414Z,47.93
2019-02-17T19:47:02.621Z,54.63
2019-02-17T19:50:09.022Z,53.90
2019-02-17T19:53:14.318Z,50.30
2019-02-17T19:56:19.512Z,60.10
2019-02-17T19:59:24.713Z,47.53
2019-02-17T20:02:45.556Z,78.23
2019-02-17T20:05:54.454Z,51.73
2019-02-17T20:08:59.620Z,61.83
2019-02-17T20:12:04.751Z,47.20
2019-02-17T20:15:09.952Z,58.80
2019-02-17T20:18:15.212Z,59.70
2019-02-17T20:21:20.723Z,51.43
2019-02-17T20:24:25.991Z,54.40
2019-02-17T20:27:31.271Z,51.03
2019-02-17T20:30:36.485Z,62.80
2019-02-17T20:33:41.711Z,63.10
2019-02-17T20:36:46.854Z,55.20
2019-02-17T20:39:52.120Z,57.00
2019-02-17T20:42:57.402Z,56.60
2019-02-17T20:46:02.654Z,55.10
2019-02-17T20:49:07.897Z,52.17
2019-02-17T20:52:13.167Z,46.83
2019-02-17T20:55:18.399Z,57.30
2019-02-17T20:58:23.535Z,57.53
2019-02-17T21:01:28.713Z,70.93
2019-02-17T21:04:33.841Z,61.07
2019-02-17T21:07:39.041Z,61.77
2019-02-17T21:10:44.260Z,60.77
2019-02-17T21:13:49.432Z,57.30
2019-02-17T21:16:54.588Z,57.20
2019-02-17T21:19:59.810Z,126.43
2019-02-17T21:23:05.033Z,57.93
2019-02-17T21:26:10.241Z,52.70
2019-02-17T21:29:15.338Z,56.57
2019-02-17T21:32:20.567Z,56.53
2019-02-17T21:35:25.786Z,60.33
2019-02-17T21:38:31.212Z,55.23
2019-02-17T21:41:36.385Z,65.60
2019-02-17T21:44:41.520Z,57.50
2019-02-17T21:47:46.707Z,74.03
2019-02-17T21:50:51.822Z,65.70
2019-02-17T21:53:58.115Z,75.90
2019-02-17T21:57:03.427Z,74.23
2019-02-17T22:00:10.722Z,71.93
2019-02-17T22:03:16.229Z,67.47
2019-02-17T22:06:21.431Z,64.87
2019-02-17T22:09:26.639Z,73.27
2019-02-17T22:12:31.774Z,84.67
2019-02-17T22:15:37.043Z,96.03
2019-02-17T22:18:42.161Z,88.77
2019-02-17T22:21:47.336Z,83.47
2019-02-17T22:24:53.092Z,152.60
2019-02-17T22:27:58.499Z,80.47
2019-02-17T22:31:03.770Z,86.63
2019-02-17T22:34:09.027Z,93.63
2019-02-17T22:37:14.197Z,83.10
2019-02-17T22:40:19.382Z,79.73
2019-02-17T22:43:24.520Z,87.30
2019-02-17T22:46:29.887Z,82.17
2019-02-17T22:49:35.065Z,83.97
2019-02-17T22:52:40.336Z,85.53
2019-02-17T22:55:45.599Z,83.97
2019-02-17T22:58:50.802Z,75.07
2019-02-17T23:01:56.367Z,68.90
2019-02-17T23:05:01.601Z,80.33
2019-02-17T23:08:07.292Z,60.87
2019-02-17T23:11:12.489Z,47.83
2019-02-17T23:14:17.831Z,55.60
2019-02-17T23:17:23.108Z,48.60
2019-02-17T23:20:28.350Z,52.00
2019-02-17T23:23:33.590Z,42.37
2019-02-17T23:26:38.857Z,45.63
2019-02-17T23:29:44.047Z,52.13
2019-02-17T23:32:49.306Z,59.70
2019-02-17T23:35:54.502Z,49.70
2019-02-17T23:39:01.959Z,41.37
2019-02-17T23:42:08.765Z,42.37
2019-02-17T23:45:14.031Z,37.33
2019-02-17T23:48:19.206Z,40.20
2019-02-17T23:51:24.428Z,38.10
2019-02-17T23:54:29.674Z,41.57
2019-02-17T23:57:34.866Z,37.47
